createdAt,value
2018-01-08T00:00:05.371Z,1007.34
2018-01-08T00:00:45.930Z,1007.3
2018-01-08T00:01:26.420Z,1007.33
2018-01-08T00:02:06.953Z,1007.31
2018-01-08T00:02:47.437Z,1007.25
2018-01-08T00:03:27.951Z,1007.28
2018-01-08T00:04:08.497Z,1007.24
2018-01-08T00:04:49.054Z,1007.18
2018-01-08T00:05:29.581Z,1007.22
2018-01-08T00:06:10.323Z,1007.27
2018-01-08T00:06:50.902Z,1007.27
2018-01-08T00:07:31.435Z,1007.18
2018-01-08T00:08:11.983Z,1007.31
2018-01-08T00:08:52.484Z,1007.22
2018-01-08T00:09:33.044Z,1007.3
2018-01-08T00:10:13.632Z,1007.17
2018-01-08T00:10:54.145Z,1007.18
2018-01-08T00:11:34.688Z,1007.17
2018-01-08T00:12:15.312Z,1007.15
2018-01-08T00:12:55.768Z,1007.19
2018-01-08T00:13:36.322Z,1007.17
2018-01-08T00:14:17.179Z,1007.16
2018-01-08T00:15:01.071Z,1007.13
2018-01-08T00:15:44.615Z,1007.14
2018-01-08T00:16:27.212Z,1007.14
2018-01-08T00:17:08.724Z,1007.15
2018-01-08T00:17:49.893Z,1007.35
2018-01-08T00:18:32.412Z,1007.11
2018-01-08T00:19:14.099Z,1007.14
2018-01-08T00:30:21.374Z,1007.15
2018-01-08T00:31:11.802Z,1007.04
2018-01-08T00:32:03.130Z,1007.1
2018-01-08T00:32:53.413Z,1007.06
2018-01-08T00:35:34.837Z,1007.09
2018-01-08T00:36:23.150Z,1007.08
2018-01-08T00:37:13.361Z,1007.13
2018-01-08T00:38:02.512Z,1007.14
2018-01-08T00:43:38.541Z,1007.18
2018-01-08T00:44:27.124Z,1007.15
2018-01-08T00:45:16.199Z,1007.13
2018-01-08T00:46:04.844Z,1007.23
2018-01-08T00:46:53.521Z,1007.15
2018-01-08T00:47:42.110Z,1007.09
2018-01-08T00:48:30.920Z,1007.16
2018-01-08T00:49:19.709Z,1007.12
2018-01-08T00:50:08.846Z,1007.11
2018-01-08T00:53:21.821Z,1007.33
2018-01-08T00:54:10.274Z,1007.23
2018-01-08T00:54:59.012Z,1007.19
2018-01-08T00:55:47.894Z,1007.12
2018-01-08T00:56:37.056Z,1007.12
2018-01-08T00:57:25.615Z,1007.21
2018-01-08T01:00:12.280Z,1007.07
2018-01-08T01:01:01.149Z,1007.1
2018-01-08T01:03:29.122Z,1007.11
2018-01-08T01:04:17.903Z,1007.1
2018-01-08T01:05:11.323Z,1007.14
2018-01-08T01:07:04.012Z,1007.06
2018-01-08T01:07:53.356Z,1007.07
2018-01-08T01:12:06.298Z,1007.15
2018-01-08T01:13:16.412Z,1007.28
2018-01-08T01:14:03.595Z,1007.18
2018-01-08T01:14:52.426Z,1007.14
2018-01-08T01:15:40.988Z,1007.13
2018-01-08T01:16:29.858Z,1007.14
2018-01-08T01:18:51.970Z,1007.23
2018-01-08T01:19:40.777Z,1007.18
2018-01-08T01:22:20.263Z,1007.11
2018-01-08T01:25:09.098Z,1007.11
2018-01-08T01:25:57.672Z,1007.1
2018-01-08T01:26:45.806Z,1007.09
2018-01-08T01:27:34.662Z,1007.1
2018-01-08T01:28:23.323Z,1007.14
2018-01-08T01:29:12.423Z,1007.19
2018-01-08T01:29:58.522Z,1007.2
2018-01-08T01:30:47.880Z,1007.21
2018-01-08T01:31:37.778Z,1007.14
2018-01-08T01:32:26.584Z,1007.09
2018-01-08T01:35:17.751Z,1007.18
2018-01-08T01:36:07.056Z,1007.08
2018-01-08T01:36:55.243Z,1007.21
2018-01-08T01:37:41.559Z,1007.2
2018-01-08T01:38:30.339Z,1007.22
2018-01-08T01:39:19.485Z,1007.23
2018-01-08T01:39:59.887Z,1007.21
2018-01-08T01:40:40.501Z,1007.18
2018-01-08T01:41:21.083Z,1007.19
2018-01-08T01:42:01.736Z,1007.26
2018-01-08T01:42:42.386Z,1007.17
2018-01-08T01:43:22.845Z,1007.15
2018-01-08T01:44:03.381Z,1007.2
2018-01-08T01:44:44.033Z,1007.18
2018-01-08T01:45:24.506Z,1007.26
2018-01-08T01:54:26.331Z,1007.23
2018-01-08T01:55:15.045Z,1007.28
2018-01-08T01:56:03.616Z,1007.24
2018-01-08T01:56:52.742Z,1007.21
2018-01-08T01:57:41.418Z,1007.16
2018-01-08T01:58:29.964Z,1007.17
2018-01-08T01:59:18.856Z,1007.2
2018-01-08T02:00:07.571Z,1007.2
2018-01-08T02:00:58.671Z,1007.23
2018-01-08T02:01:49.924Z,1007.25
2018-01-08T02:02:39.435Z,1007.29
2018-01-08T02:08:00.330Z,1007.31
2018-01-08T02:08:53.236Z,1007.36
2018-01-08T02:15:59.860Z,1007.35
2018-01-08T02:18:08.828Z,1007.26
2018-01-08T02:18:57.371Z,1007.29
2018-01-08T02:19:46.500Z,1007.32
2018-01-08T02:20:33.259Z,1007.35
2018-01-08T02:21:21.715Z,1007.33
2018-01-08T02:22:10.620Z,1007.3
2018-01-08T02:22:59.682Z,1007.4
2018-01-08T02:23:48.372Z,1007.36
2018-01-08T02:24:36.826Z,1007.3
2018-01-08T02:25:25.740Z,1007.37
2018-01-08T02:26:14.034Z,1007.36
2018-01-08T02:27:06.678Z,1007.44
2018-01-08T02:27:53.599Z,1007.3
2018-01-08T02:28:42.181Z,1007.42
2018-01-08T02:29:30.218Z,1007.3
2018-01-08T02:31:59.634Z,1007.38
2018-01-08T02:32:48.490Z,1007.39
2018-01-08T02:33:36.984Z,1007.35
2018-01-08T02:34:25.733Z,1007.36
2018-01-08T02:36:56.071Z,1007.39
2018-01-08T02:37:44.408Z,1007.42
2018-01-08T02:38:34.435Z,1007.45
2018-01-08T02:39:21.977Z,1007.39
2018-01-08T02:40:10.335Z,1007.49
2018-01-08T02:42:12.167Z,1007.4
2018-01-08T02:43:01.723Z,1007.47
2018-01-08T02:43:50.280Z,1007.41
2018-01-08T02:44:38.988Z,1007.45
2018-01-08T02:45:27.398Z,1007.51
2018-01-08T02:46:16.183Z,1007.41
2018-01-08T02:47:05.312Z,1007.44
2018-01-08T02:47:54.250Z,1007.44
2018-01-08T02:48:44.265Z,1007.4
2018-01-08T02:49:33.132Z,1007.41
2018-01-08T02:50:21.646Z,1007.39
2018-01-08T03:00:02.151Z,1007.45
2018-01-08T03:00:50.996Z,1007.48
2018-01-08T03:01:41.305Z,1007.54
2018-01-08T03:02:29.945Z,1007.48
2018-01-08T03:04:58.319Z,1007.54
2018-01-08T03:05:49.112Z,1007.54
2018-01-08T03:06:37.195Z,1007.5
2018-01-08T03:07:26.140Z,1007.59
2018-01-08T03:08:14.786Z,1007.58
2018-01-08T03:09:04.051Z,1007.61
2018-01-08T03:09:54.954Z,1007.52
2018-01-08T03:10:42.420Z,1007.49
2018-01-08T03:11:31.397Z,1007.55
2018-01-08T03:12:20.447Z,1007.4
2018-01-08T03:13:08.981Z,1007.51
2018-01-08T03:13:58.487Z,1007.49
2018-01-08T03:14:47.191Z,1007.6
2018-01-08T03:17:17.272Z,1007.46
2018-01-08T03:18:05.836Z,1007.57
2018-01-08T03:20:11.468Z,1007.56
2018-01-08T03:21:00.128Z,1007.62
2018-01-08T03:21:48.882Z,1007.53
2018-01-08T03:22:37.757Z,1007.55
2018-01-08T03:23:26.510Z,1007.56
2018-01-08T03:24:15.286Z,1007.65
2018-01-08T03:25:04.061Z,1007.63
2018-01-08T03:25:53.047Z,1007.64
2018-01-08T03:26:41.783Z,1007.66
2018-01-08T03:35:22.286Z,1007.7
2018-01-08T03:36:11.972Z,1007.7
2018-01-08T03:37:00.827Z,1007.64
2018-01-08T03:37:49.270Z,1007.64
2018-01-08T03:38:38.286Z,1007.64
2018-01-08T03:39:29.475Z,1007.58
2018-01-08T03:40:17.030Z,1007.55
2018-01-08T03:41:07.907Z,1007.5
2018-01-08T03:41:57.288Z,1007.56
2018-01-08T03:42:46.283Z,1007.51
2018-01-08T03:43:35.191Z,1007.46
2018-01-08T03:44:26.793Z,1007.41
2018-01-08T03:45:16.932Z,1007.43
2018-01-08T03:46:07.514Z,1007.4
2018-01-08T03:46:58.359Z,1007.41
2018-01-08T03:49:26.508Z,1007.38
2018-01-08T03:54:55.704Z,1007.37
2018-01-08T03:55:45.120Z,1007.42
2018-01-08T03:56:33.670Z,1007.31
2018-01-08T03:57:23.111Z,1007.34
2018-01-08T03:59:51.048Z,1007.36
2018-01-08T04:00:42.592Z,1007.39
2018-01-08T04:06:25.493Z,1007.42
2018-01-08T04:07:14.272Z,1007.4
2018-01-08T04:08:03.253Z,1007.39
2018-01-08T04:08:51.604Z,1007.43
2018-01-08T04:09:40.506Z,1007.47
2018-01-08T04:10:29.437Z,1007.41
2018-01-08T04:11:17.770Z,1007.45
2018-01-08T04:12:06.653Z,1007.48
2018-01-08T04:12:55.677Z,1007.43
2018-01-08T04:13:44.212Z,1007.42
2018-01-08T04:14:33.270Z,1007.45
2018-01-08T04:15:22.271Z,1007.42
2018-01-08T04:16:11.304Z,1007.41
2018-01-08T04:16:59.744Z,1007.39
2018-01-08T04:17:48.642Z,1007.4
2018-01-08T04:18:37.161Z,1007.45
2018-01-08T04:20:14.986Z,1007.45
2018-01-08T04:21:03.895Z,1007.45
2018-01-08T04:21:53.667Z,1007.47
2018-01-08T04:22:42.065Z,1007.42
2018-01-08T04:23:31.021Z,1007.41
2018-01-08T04:24:20.905Z,1007.42
2018-01-08T04:25:11.053Z,1007.37
2018-01-08T04:25:59.837Z,1007.42
2018-01-08T04:26:48.417Z,1007.39
2018-01-08T04:27:37.110Z,1007.52
2018-01-08T04:28:26.278Z,1007.45
2018-01-08T04:29:15.619Z,1007.43
2018-01-08T04:30:05.654Z,1007.44
2018-01-08T04:33:25.932Z,1007.41
2018-01-08T04:34:14.944Z,1007.46
2018-01-08T04:38:09.107Z,1007.45
2018-01-08T04:38:58.124Z,1007.4
2018-01-08T04:39:48.644Z,1007.45
2018-01-08T04:40:37.624Z,1007.48
2018-01-08T04:41:26.349Z,1007.4
2018-01-08T04:42:15.430Z,1007.4
2018-01-08T04:43:01.705Z,1007.5
2018-01-08T04:43:42.093Z,1007.42
2018-01-08T04:44:22.618Z,1007.41
2018-01-08T04:45:03.184Z,1007.56
2018-01-08T04:45:43.813Z,1007.43
2018-01-08T04:46:24.346Z,1007.44
2018-01-08T04:47:04.844Z,1007.46
2018-01-08T04:47:45.376Z,1007.5
2018-01-08T04:48:25.914Z,1007.45
2018-01-08T04:49:06.446Z,1007.46
2018-01-08T04:49:46.946Z,1007.47
2018-01-08T04:50:27.567Z,1007.47
2018-01-08T04:51:08.067Z,1007.42
2018-01-08T05:03:27.554Z,1007.48
2018-01-08T05:04:16.182Z,1007.4
2018-01-08T05:05:05.930Z,1007.4
2018-01-08T05:05:54.550Z,1007.45
2018-01-08T05:06:47.231Z,1007.42
2018-01-08T05:07:33.056Z,1007.39
2018-01-08T05:08:22.081Z,1007.39
2018-01-08T05:09:10.250Z,1007.42
2018-01-08T05:09:59.277Z,1007.38
2018-01-08T05:10:47.962Z,1007.43
2018-01-08T05:11:37.430Z,1007.4
2018-01-08T05:16:06.015Z,1007.32
2018-01-08T05:16:58.007Z,1007.32
2018-01-08T05:17:44.708Z,1007.38
2018-01-08T05:18:33.300Z,1007.34
2018-01-08T05:19:22.024Z,1007.35
2018-01-08T05:20:11.296Z,1007.34
2018-01-08T05:21:00.511Z,1007.38
2018-01-08T05:21:49.211Z,1007.28
2018-01-08T05:22:38.266Z,1007.36
2018-01-08T05:24:13.856Z,1007.33
2018-01-08T05:25:06.953Z,1007.41
2018-01-08T05:25:57.668Z,1007.38
2018-01-08T05:26:43.187Z,1007.39
2018-01-08T05:27:34.926Z,1007.41
2018-01-08T05:28:25.239Z,1007.43
2018-01-08T05:29:14.323Z,1007.42
2018-01-08T05:30:03.003Z,1007.4
2018-01-08T05:30:51.605Z,1007.38
2018-01-08T05:31:41.444Z,1007.31
2018-01-08T05:32:29.899Z,1007.4
2018-01-08T05:33:19.539Z,1007.35
2018-01-08T05:36:58.390Z,1007.33
2018-01-08T05:37:47.186Z,1007.31
2018-01-08T05:38:35.771Z,1007.38
2018-01-08T05:51:31.524Z,1007.21
2018-01-08T05:52:19.890Z,1007.19
2018-01-08T05:53:08.385Z,1007.18
2018-01-08T05:53:57.100Z,1007.18
2018-01-08T05:54:45.762Z,1007.18
2018-01-08T05:55:29.591Z,1007.23
2018-01-08T05:56:19.000Z,1007.22
2018-01-08T05:57:09.040Z,1007.19
2018-01-08T05:59:30.293Z,1007.25
2018-01-08T06:00:19.093Z,1007.22
2018-01-08T06:01:08.126Z,1007.22
2018-01-08T06:01:57.412Z,1007.21
2018-01-08T06:02:46.302Z,1007.2
2018-01-08T06:03:34.801Z,1007.19
2018-01-08T06:04:23.636Z,1007.23
2018-01-08T06:05:13.815Z,1007.21
2018-01-08T06:06:02.972Z,1007.15
2018-01-08T06:06:51.274Z,1007.18
2018-01-08T06:07:40.047Z,1007.22
2018-01-08T06:08:28.839Z,1007.21
2018-01-08T06:09:18.340Z,1007.18
2018-01-08T06:10:05.668Z,1007.26
2018-01-08T06:10:52.211Z,1007.16
2018-01-08T06:11:41.038Z,1007.27
2018-01-08T06:12:31.028Z,1007.16
2018-01-08T06:13:18.104Z,1007.17
2018-01-08T06:14:07.194Z,1007.15
2018-01-08T06:14:49.844Z,1007.15
2018-01-08T06:15:30.402Z,1007.16
2018-01-08T06:16:10.952Z,1007.13
2018-01-08T06:16:51.482Z,1007.15
2018-01-08T06:17:31.979Z,1007.12
2018-01-08T06:18:12.521Z,1007.06
2018-01-08T06:18:53.032Z,1007.14
2018-01-08T06:19:33.516Z,1007.16
2018-01-08T06:20:14.103Z,1007.13
2018-01-08T06:20:54.643Z,1007.1
2018-01-08T06:21:35.147Z,1007.07
2018-01-08T06:22:16.456Z,1007.07
2018-01-08T06:22:56.954Z,1007.19
2018-01-08T06:23:37.573Z,1007.14
2018-01-08T06:24:18.055Z,1007.13
2018-01-08T06:29:16.529Z,1007.15
2018-01-08T06:29:57.428Z,1007.16
2018-01-08T06:30:37.953Z,1007.16
2018-01-08T06:31:18.478Z,1007.16
2018-01-08T06:32:02.653Z,1007.13
2018-01-08T06:32:43.236Z,1007.2
2018-01-08T06:33:23.789Z,1007.16
2018-01-08T06:34:04.481Z,1007.13
2018-01-08T06:34:44.934Z,1007.14
2018-01-08T06:35:25.511Z,1007.16
2018-01-08T06:36:06.159Z,1007.18
2018-01-08T06:36:46.744Z,1007.1
2018-01-08T06:37:27.279Z,1007.05
2018-01-08T06:38:07.925Z,1007.07
2018-01-08T06:38:48.413Z,1007.05
2018-01-08T06:39:29.012Z,1007.07
2018-01-08T06:40:09.892Z,1007.1
2018-01-08T06:40:50.507Z,1007.08
2018-01-08T06:41:31.079Z,1007.05
2018-01-08T06:42:11.563Z,1007.03
2018-01-08T06:42:52.103Z,1007
2018-01-08T06:43:32.633Z,1007.06
2018-01-08T06:44:13.135Z,1007.08
2018-01-08T06:44:54.210Z,1007.07
2018-01-08T06:45:34.746Z,1007.06
2018-01-08T06:46:15.262Z,1007.08
2018-01-08T06:46:55.810Z,1007.01
2018-01-08T06:47:36.361Z,1007.05
2018-01-08T06:48:16.868Z,1007.06
2018-01-08T06:48:57.482Z,1007.04
2018-01-08T06:49:37.976Z,1007.1
2018-01-08T06:50:18.580Z,1007.08
2018-01-08T06:50:59.091Z,1007.11
2018-01-08T06:51:43.244Z,1007.15
2018-01-08T06:52:23.844Z,1007.08
2018-01-08T06:53:04.530Z,1007.06
2018-01-08T06:53:45.129Z,1007.08
2018-01-08T06:54:25.597Z,1007.09
2018-01-08T06:55:06.297Z,1007.13
2018-01-08T06:55:46.700Z,1007.04
2018-01-08T06:56:27.263Z,1007.07
2018-01-08T06:57:07.749Z,1007.07
2018-01-08T06:57:48.282Z,1007.04
2018-01-08T06:58:28.797Z,1007.06
2018-01-08T06:59:09.329Z,1007.1
2018-01-08T06:59:49.885Z,1007.04
2018-01-08T07:00:30.422Z,1007.07
2018-01-08T07:01:10.952Z,1007.13
2018-01-08T07:01:51.520Z,1007.09
2018-01-08T07:02:32.035Z,1007.12
2018-01-08T07:03:12.632Z,1007.06
2018-01-08T07:03:53.126Z,1007.04
2018-01-08T07:04:33.712Z,1007.06
2018-01-08T07:05:14.198Z,1007.06
2018-01-08T07:05:54.863Z,1007.02
2018-01-08T07:06:35.452Z,1007.01
2018-01-08T07:07:15.996Z,1007
2018-01-08T07:07:56.523Z,1007.02
2018-01-08T07:08:37.053Z,1006.97
2018-01-08T07:09:17.599Z,1007.17
2018-01-08T07:09:58.153Z,1006.99
2018-01-08T07:10:38.642Z,1007
2018-01-08T07:11:19.262Z,1007.07
2018-01-08T07:11:59.793Z,1007.01
2018-01-08T07:12:40.418Z,1007.13
2018-01-08T07:13:21.005Z,1007.08
2018-01-08T07:14:01.507Z,1007.06
2018-01-08T07:14:42.027Z,1007.14
2018-01-08T07:15:22.580Z,1007.18
2018-01-08T07:16:03.146Z,1007.05
2018-01-08T07:16:43.635Z,1007.11
2018-01-08T07:17:24.171Z,1007.05
2018-01-08T07:18:04.674Z,1007.07
2018-01-08T07:18:45.213Z,1007.08
2018-01-08T07:19:25.724Z,1007.09
2018-01-08T07:20:06.431Z,1007.06
2018-01-08T07:20:47.038Z,1007.07
2018-01-08T07:21:27.744Z,1007.05
2018-01-08T07:22:08.276Z,1007.06
2018-01-08T07:22:48.863Z,1007.05
2018-01-08T07:23:29.485Z,1007.2
2018-01-08T07:24:09.949Z,1007.31
2018-01-08T07:24:50.499Z,1007.13
2018-01-08T07:25:31.038Z,1007.15
2018-01-08T07:26:11.533Z,1007.17
2018-01-08T07:26:52.155Z,1007.16
2018-01-08T07:27:32.709Z,1007.14
2018-01-08T07:28:13.229Z,1007.12
2018-01-08T07:28:53.740Z,1007.12
2018-01-08T07:29:34.326Z,1007.07
2018-01-08T07:30:14.849Z,1007.11
2018-01-08T07:30:55.549Z,1007.09
2018-01-08T07:31:36.122Z,1007.17
2018-01-08T07:32:16.646Z,1007.07
2018-01-08T07:32:57.229Z,1007.17
2018-01-08T07:33:37.746Z,1007.19
2018-01-08T07:34:18.308Z,1007.11
2018-01-08T07:34:58.840Z,1007.13
2018-01-08T07:35:39.457Z,1007.19
2018-01-08T07:36:20.026Z,1007.15
2018-01-08T07:37:00.512Z,1007.18
2018-01-08T07:37:41.060Z,1007.18
2018-01-08T07:38:21.608Z,1007.19
2018-01-08T07:39:02.137Z,1007.22
2018-01-08T07:39:42.687Z,1007.18
2018-01-08T07:40:23.223Z,1007.21
2018-01-08T07:41:03.721Z,1007.18
2018-01-08T07:41:44.582Z,1007.15
2018-01-08T07:42:25.100Z,1007.19
2018-01-08T07:43:05.692Z,1007.22
2018-01-08T07:43:46.355Z,1007.22
2018-01-08T07:44:26.839Z,1007.16
2018-01-08T07:45:07.494Z,1007.3
2018-01-08T07:45:47.968Z,1007.21
2018-01-08T07:46:28.572Z,1007.18
2018-01-08T07:47:09.038Z,1007.2
2018-01-08T07:47:49.586Z,1007.16
2018-01-08T07:48:30.082Z,1007.24
2018-01-08T07:49:10.622Z,1007.18
2018-01-08T07:49:51.205Z,1007.27
2018-01-08T07:50:31.788Z,1007.21
2018-01-08T07:51:12.252Z,1007.21
2018-01-08T07:51:52.800Z,1007.24
2018-01-08T07:52:33.902Z,1007.19
2018-01-08T07:53:13.791Z,1007.18
2018-01-08T07:53:54.350Z,1007.26
2018-01-08T07:54:34.916Z,1007.12
2018-01-08T07:55:15.419Z,1007.26
2018-01-08T07:55:55.935Z,1007.26
2018-01-08T07:56:36.489Z,1007.22
2018-01-08T07:57:17.028Z,1007.21
2018-01-08T07:57:57.581Z,1007.22
2018-01-08T07:58:38.131Z,1007.25
2018-01-08T07:59:18.662Z,1007.33
2018-01-08T07:59:59.225Z,1007.29
2018-01-08T08:00:39.747Z,1007.3
2018-01-08T08:01:20.265Z,1007.35
2018-01-08T08:02:00.817Z,1007.36
2018-01-08T08:02:41.307Z,1007.34
2018-01-08T08:03:21.812Z,1007.47
2018-01-08T08:04:02.350Z,1007.35
2018-01-08T08:04:42.908Z,1007.33
2018-01-08T08:05:23.438Z,1007.35
2018-01-08T08:06:03.960Z,1007.36
2018-01-08T08:06:44.532Z,1007.38
2018-01-08T08:07:25.032Z,1007.34
2018-01-08T08:08:05.600Z,1007.4
2018-01-08T08:08:46.136Z,1007.46
2018-01-08T08:09:26.659Z,1007.4
2018-01-08T08:10:07.215Z,1007.41
2018-01-08T08:10:47.743Z,1007.4
2018-01-08T08:11:28.242Z,1007.45
2018-01-08T08:12:08.849Z,1007.44
2018-01-08T08:12:49.364Z,1007.43
2018-01-08T08:13:29.928Z,1007.44
2018-01-08T08:14:10.495Z,1007.51
2018-01-08T08:14:50.960Z,1007.44
2018-01-08T08:15:31.523Z,1007.5
2018-01-08T08:16:12.036Z,1007.48
2018-01-08T08:16:52.576Z,1007.45
2018-01-08T08:17:33.085Z,1007.47
2018-01-08T08:18:13.575Z,1007.42
2018-01-08T08:18:54.152Z,1007.5
2018-01-08T08:19:34.665Z,1007.4
2018-01-08T08:20:15.161Z,1007.44
2018-01-08T08:20:55.665Z,1007.46
2018-01-08T08:21:36.222Z,1007.42
2018-01-08T08:22:16.770Z,1007.52
2018-01-08T08:22:57.301Z,1007.48
2018-01-08T08:23:37.845Z,1007.54
2018-01-08T08:24:18.362Z,1007.51
2018-01-08T08:24:58.872Z,1007.5
2018-01-08T08:25:39.488Z,1007.53
2018-01-08T08:26:20.025Z,1007.52
2018-01-08T08:27:00.579Z,1007.51
2018-01-08T08:27:41.094Z,1007.53
2018-01-08T08:28:21.611Z,1007.59
2018-01-08T08:29:02.127Z,1007.54
2018-01-08T08:29:42.659Z,1007.55
2018-01-08T08:30:23.205Z,1007.53
2018-01-08T08:31:03.747Z,1007.55
2018-01-08T08:31:44.306Z,1007.54
2018-01-08T08:32:24.895Z,1007.62
2018-01-08T08:33:05.465Z,1007.54
2018-01-08T08:33:45.981Z,1007.56
2018-01-08T08:34:26.548Z,1007.59
2018-01-08T08:35:07.078Z,1007.54
2018-01-08T08:35:47.616Z,1007.49
2018-01-08T08:36:28.154Z,1007.53
2018-01-08T08:37:08.700Z,1007.57
2018-01-08T08:37:49.242Z,1007.53
2018-01-08T08:38:29.752Z,1007.58
2018-01-08T08:39:10.467Z,1007.56
2018-01-08T08:39:50.981Z,1007.56
2018-01-08T08:40:31.523Z,1007.55
2018-01-08T08:41:12.073Z,1007.62
2018-01-08T08:41:52.630Z,1007.61
2018-01-08T08:42:33.184Z,1007.51
2018-01-08T08:43:13.707Z,1007.5
2018-01-08T08:43:54.216Z,1007.46
2018-01-08T08:44:34.815Z,1007.48
2018-01-08T08:45:15.309Z,1007.5
2018-01-08T08:45:55.844Z,1007.48
2018-01-08T08:46:36.363Z,1007.49
2018-01-08T08:47:16.928Z,1007.51
2018-01-08T08:47:57.448Z,1007.47
2018-01-08T08:48:38.093Z,1007.48
2018-01-08T08:49:18.652Z,1007.43
2018-01-08T08:49:59.258Z,1007.46
2018-01-08T08:50:40.696Z,1007.5
2018-01-08T08:51:21.251Z,1007.53
2018-01-08T08:52:01.744Z,1007.46
2018-01-08T08:52:42.307Z,1007.47
2018-01-08T08:53:22.852Z,1007.49
2018-01-08T08:54:03.379Z,1007.4
2018-01-08T08:54:43.919Z,1007.47
2018-01-08T08:55:24.439Z,1007.47
2018-01-08T08:56:05.054Z,1007.46
2018-01-08T08:56:45.656Z,1007.44
2018-01-08T08:57:26.191Z,1007.55
2018-01-08T08:58:06.750Z,1007.52
2018-01-08T08:58:47.251Z,1007.44
2018-01-08T08:59:27.821Z,1007.43
2018-01-08T09:00:08.333Z,1007.42
2018-01-08T09:00:48.981Z,1007.45
2018-01-08T09:01:29.533Z,1007.4
2018-01-08T09:02:10.117Z,1007.38
2018-01-08T09:02:50.635Z,1007.42
2018-01-08T09:03:31.219Z,1007.41
2018-01-08T09:04:11.729Z,1007.41
2018-01-08T09:04:52.313Z,1007.47
2018-01-08T09:05:32.833Z,1007.42
2018-01-08T09:06:13.372Z,1007.49
2018-01-08T09:06:53.861Z,1007.43
2018-01-08T09:07:34.478Z,1007.46
2018-01-08T09:08:14.964Z,1007.44
2018-01-08T09:08:55.516Z,1007.43
2018-01-08T09:09:36.079Z,1007.41
2018-01-08T09:10:16.605Z,1007.42
2018-01-08T09:10:57.170Z,1007.48
2018-01-08T09:11:37.752Z,1007.43
2018-01-08T09:12:18.463Z,1007.4
2018-01-08T09:12:59.008Z,1007.44
2018-01-08T09:13:39.560Z,1007.44
2018-01-08T09:14:20.064Z,1007.49
2018-01-08T09:15:00.598Z,1007.51
2018-01-08T09:15:41.202Z,1007.54
2018-01-08T09:16:21.865Z,1007.48
2018-01-08T09:17:02.416Z,1007.44
2018-01-08T09:17:42.979Z,1007.4
2018-01-08T09:18:23.536Z,1007.43
2018-01-08T09:19:04.044Z,1007.39
2018-01-08T09:19:44.526Z,1007.46
2018-01-08T09:20:25.110Z,1007.4
2018-01-08T09:21:05.609Z,1007.35
2018-01-08T09:21:46.110Z,1007.38
2018-01-08T09:22:26.631Z,1007.39
2018-01-08T09:23:07.213Z,1007.37
2018-01-08T09:23:47.756Z,1007.33
2018-01-08T09:24:28.260Z,1007.35
2018-01-08T09:25:08.783Z,1007.38
2018-01-08T09:25:49.294Z,1007.34
2018-01-08T09:26:29.853Z,1007.39
2018-01-08T09:27:10.372Z,1007.48
2018-01-08T09:27:50.959Z,1007.41
2018-01-08T09:28:31.490Z,1007.38
2018-01-08T09:29:12.129Z,1007.4
2018-01-08T09:29:52.655Z,1007.34
2018-01-08T09:30:33.201Z,1007.4
2018-01-08T09:31:13.738Z,1007.31
2018-01-08T09:31:54.264Z,1007.43
2018-01-08T09:32:34.835Z,1007.32
2018-01-08T09:33:15.313Z,1007.34
2018-01-08T09:33:55.878Z,1007.33
2018-01-08T09:34:36.418Z,1007.29
2018-01-08T09:35:16.918Z,1007.29
2018-01-08T09:35:57.423Z,1007.32
2018-01-08T09:36:37.987Z,1007.29
2018-01-08T09:37:18.510Z,1007.25
2018-01-08T09:37:59.080Z,1007.33
2018-01-08T09:38:39.625Z,1007.42
2018-01-08T09:39:20.160Z,1007.41
2018-01-08T09:40:00.684Z,1007.41
2018-01-08T09:40:41.252Z,1007.42
2018-01-08T09:41:21.762Z,1007.5
2018-01-08T09:42:02.318Z,1007.47
2018-01-08T09:42:42.875Z,1007.46
2018-01-08T09:43:23.399Z,1007.46
2018-01-08T09:44:03.949Z,1007.55
2018-01-08T09:44:44.491Z,1007.52
2018-01-08T09:45:25.007Z,1007.54
2018-01-08T09:46:05.681Z,1007.48
2018-01-08T09:46:46.236Z,1007.53
2018-01-08T09:47:26.740Z,1007.49
2018-01-08T09:48:07.285Z,1007.52
2018-01-08T09:48:47.831Z,1007.51
2018-01-08T09:49:28.381Z,1007.48
2018-01-08T09:50:08.892Z,1007.5
2018-01-08T09:50:49.413Z,1007.49
2018-01-08T09:51:29.963Z,1007.48
2018-01-08T09:52:10.519Z,1007.45
2018-01-08T09:52:51.000Z,1007.39
2018-01-08T09:53:31.610Z,1007.45
2018-01-08T09:54:12.170Z,1007.45
2018-01-08T09:54:52.748Z,1007.5
2018-01-08T09:55:33.265Z,1007.36
2018-01-08T09:56:13.810Z,1007.4
2018-01-08T09:56:54.358Z,1007.42
2018-01-08T09:57:34.873Z,1007.45
2018-01-08T09:58:15.408Z,1007.42
2018-01-08T09:58:55.956Z,1007.39
2018-01-08T09:59:36.542Z,1007.47
2018-01-08T10:00:17.059Z,1007.43
2018-01-08T10:00:57.596Z,1007.42
2018-01-08T10:01:38.143Z,1007.45
2018-01-08T10:02:18.674Z,1007.49
2018-01-08T10:02:59.243Z,1007.43
2018-01-08T10:03:39.754Z,1007.51
2018-01-08T10:04:20.266Z,1007.43
2018-01-08T10:05:00.864Z,1007.44
2018-01-08T10:05:41.358Z,1007.49
2018-01-08T10:06:21.900Z,1007.51
2018-01-08T10:07:02.451Z,1007.51
2018-01-08T10:07:42.972Z,1007.51
2018-01-08T10:08:23.561Z,1007.44
2018-01-08T10:09:04.125Z,1007.37
2018-01-08T10:09:44.623Z,1007.42
2018-01-08T10:10:25.186Z,1007.47
2018-01-08T10:11:05.714Z,1007.43
2018-01-08T10:11:46.267Z,1007.51
2018-01-08T10:12:26.851Z,1007.44
2018-01-08T10:13:07.376Z,1007.43
2018-01-08T10:13:47.891Z,1007.29
2018-01-08T10:14:28.460Z,1007.44
2018-01-08T10:15:09.016Z,1007.37
2018-01-08T10:15:49.535Z,1007.39
2018-01-08T10:16:30.106Z,1007.31
2018-01-08T10:17:10.643Z,1007.34
2018-01-08T10:17:51.163Z,1007.42
2018-01-08T10:18:31.804Z,1007.38
2018-01-08T10:19:12.340Z,1007.34
2018-01-08T10:19:52.852Z,1007.48
2018-01-08T10:20:33.383Z,1007.41
2018-01-08T10:21:13.900Z,1007.31
2018-01-08T10:21:54.491Z,1007.3
2018-01-08T10:22:35.063Z,1007.34
2018-01-08T10:23:15.583Z,1007.29
2018-01-08T10:23:56.194Z,1007.22
2018-01-08T10:24:36.968Z,1007.25
2018-01-08T10:25:17.545Z,1007.21
2018-01-08T10:25:58.069Z,1007.15
2018-01-08T10:26:38.721Z,1007.21
2018-01-08T10:27:19.222Z,1007.21
2018-01-08T10:27:59.765Z,1007.18
2018-01-08T10:28:40.404Z,1007.22
2018-01-08T10:29:21.441Z,1007.2
2018-01-08T10:30:01.470Z,1007.25
2018-01-08T10:30:42.002Z,1007.26
2018-01-08T10:31:22.729Z,1007.24
2018-01-08T10:32:03.090Z,1007.28
2018-01-08T10:32:43.637Z,1007.17
2018-01-08T10:33:24.196Z,1007.17
2018-01-08T10:34:04.892Z,1007.19
2018-01-08T10:34:45.421Z,1007.2
2018-01-08T10:35:26.003Z,1007.24
2018-01-08T10:36:06.558Z,1007.21
2018-01-08T10:36:47.102Z,1007.27
2018-01-08T10:37:27.638Z,1007.26
2018-01-08T10:38:08.256Z,1007.22
2018-01-08T10:38:48.790Z,1007.17
2018-01-08T10:39:29.319Z,1007.13
2018-01-08T10:40:09.831Z,1007.13
2018-01-08T10:40:50.387Z,1007.18
2018-01-08T10:41:31.069Z,1007.18
2018-01-08T10:42:11.592Z,1007.18
2018-01-08T10:42:52.066Z,1007.21
2018-01-08T10:43:32.565Z,1007.26
2018-01-08T10:44:13.178Z,1007.27
2018-01-08T10:44:53.691Z,1007.21
2018-01-08T10:45:34.238Z,1007.2
2018-01-08T10:46:14.788Z,1007.19
2018-01-08T10:46:55.328Z,1007.15
2018-01-08T10:47:35.861Z,1007.21
2018-01-08T10:48:16.457Z,1007.18
2018-01-08T10:48:57.055Z,1007.12
2018-01-08T10:49:37.566Z,1007.19
2018-01-08T10:50:18.099Z,1007.23
2018-01-08T10:50:58.634Z,1007.13
2018-01-08T10:51:39.155Z,1007.12
2018-01-08T10:52:19.673Z,1007.16
2018-01-08T10:53:00.253Z,1007.12
2018-01-08T10:53:40.748Z,1007.18
2018-01-08T10:54:21.316Z,1007.08
2018-01-08T10:55:01.948Z,1007.09
2018-01-08T10:55:42.453Z,1007.07
2018-01-08T10:56:22.987Z,1007.1
2018-01-08T10:57:03.537Z,1007.08
2018-01-08T10:57:44.042Z,1007.07
2018-01-08T10:58:24.677Z,1007.11
2018-01-08T10:59:05.220Z,1007.04
2018-01-08T10:59:45.772Z,1007.05
2018-01-08T11:00:26.260Z,1007.12
2018-01-08T11:01:06.804Z,1007.03
2018-01-08T11:01:47.332Z,1006.98
2018-01-08T11:02:27.900Z,1007.01
2018-01-08T11:03:08.481Z,1007.01
2018-01-08T11:03:49.235Z,1007.04
2018-01-08T11:04:29.813Z,1006.97
2018-01-08T11:05:10.309Z,1006.99
2018-01-08T11:05:50.860Z,1006.98